sensor_id;sensor_type;location;lat;lon;timestamp;temperature;humidity
39621;DHT22;25309;48.686;9.170;2023-04-15T03:00:58;4.30;99.90
39621;DHT22;25309;48.686;9.170;2023-04-15T03:03:25;4.20;99.90
39621;DHT22;25309;48.686;9.170;2023-04-15T03:05:54;4.20;99.90
39621;DHT22;25309;48.686;9.170;2023-04-15T03:08:21;4.20;99.90
39621;DHT22;25309;48.686;9.170;2023-04-15T03:10:48;4.20;99.90
39621;DHT22;25309;48.686;9.170;2023-04-15T03:13:18;4.30;99.90
39621;DHT22;25309;48.686;9.170;2023-04-15T03:15:46;4.30;99.90
39621;DHT22;25309;48.686;9.170;2023-04-15T03:18:14;4.30;99.90
39621;DHT22;25309;48.686;9.170;2023-04-15T03:20:41;4.30;99.90
39621;DHT22;25309;48.686;9.170;2023-04-15T03:23:09;4.30;99.90
39621;DHT22;25309;48.686;9.170;2023-04-15T03:25:36;4.30;99.90
39621;DHT22;25309;48.686;9.170;2023-04-15T03:28:05;4.30;99.90
39621;DHT22;25309;48.686;9.170;2023-04-15T03:30:32;4.40;99.90
39621;DHT22;25309;48.686;9.170;2023-04-15T03:32:59;4.30;99.90
39621;DHT22;25309;48.686;9.170;2023-04-15T03:35:27;4.30;99.90
39621;DHT22;25309;48.686;9.170;2023-04-15T03:37:55;4.30;99.90
39621;DHT22;25309;48.686;9.170;2023-04-15T03:40:21;4.40;99.90
39621;DHT22;25309;48.686;9.170;2023-04-15T03:42:48;4.40;99.90
39621;DHT22;25309;48.686;9.170;2023-04-15T03:45:15;4.40;99.90
39621;DHT22;25309;48.686;9.170;2023-04-15T03:47:42;4.40;99.90
39621;DHT22;25309;48.686;9.170;2023-04-15T03:50:09;4.40;99.90
39621;DHT22;25309;48.686;9.170;2023-04-15T03:52:38;4.40;99.90
39621;DHT22;25309;48.686;9.170;2023-04-15T03:55:06;4.40;99.90
39621;DHT22;25309;48.686;9.170;2023-04-15T03:57:34;4.40;99.90
39621;DHT22;25309;48.686;9.170;2023-04-15T04:00:06;4.40;99.90
39621;DHT22;25309;48.686;9.170;2023-04-15T04:02:37;4.40;99.90
39621;DHT22;25309;48.686;9.170;2023-04-15T04:05:05;4.40;99.90
39621;DHT22;25309;48.686;9.170;2023-04-15T04:07:32;4.40;99.90
39621;DHT22;25309;48.686;9.170;2023-04-15T04:10:01;4.40;99.90
39621;DHT22;25309;48.686;9.170;2023-04-15T04:12:29;4.40;99.90
39621;DHT22;25309;48.686;9.170;2023-04-15T04:14:56;4.40;99.90
39621;DHT22;25309;48.686;9.170;2023-04-15T04:17:23;4.40;99.90
39621;DHT22;25309;48.686;9.170;2023-04-15T04:19:50;4.40;99.90
39621;DHT22;25309;48.686;9.170;2023-04-15T04:22:17;4.30;99.90
39621;DHT22;25309;48.686;9.170;2023-04-15T04:24:47;4.30;99.90
39621;DHT22;25309;48.686;9.170;2023-04-15T04:27:15;4.30;99.90
39621;DHT22;25309;48.686;9.170;2023-04-15T04:29:42;4.30;99.90
39621;DHT22;25309;48.686;9.170;2023-04-15T04:32:09;4.30;99.90
39621;DHT22;25309;48.686;9.170;2023-04-15T04:34:36;4.30;99.90
39621;DHT22;25309;48.686;9.170;2023-04-15T04:37:03;4.30;99.90
39621;DHT22;25309;48.686;9.170;2023-04-15T04:39:30;4.30;99.90
39621;DHT22;25309;48.686;9.170;2023-04-15T04:41:58;4.30;99.90
39621;DHT22;25309;48.686;9.170;2023-04-15T04:44:26;4.30;99.90
39621;DHT22;25309;48.686;9.170;2023-04-15T04:46:53;4.30;99.90
39621;DHT22;25309;48.686;9.170;2023-04-15T04:49:20;4.30;99.90
39621;DHT22;25309;48.686;9.170;2023-04-15T04:51:47;4.30;99.90
39621;DHT22;25309;48.686;9.170;2023-04-15T04:54:14;4.30;99.90
39621;DHT22;25309;48.686;9.170;2023-04-15T04:56:41;4.30;99.90
39621;DHT22;25309;48.686;9.170;2023-04-15T04:59:08;4.30;99.90
39621;DHT22;25309;48.686;9.170;2023-04-15T05:01:37;4.30;99.90
39621;DHT22;25309;48.686;9.170;2023-04-15T05:04:04;4.30;99.90
39621;DHT22;25309;48.686;9.170;2023-04-15T05:06:32;4.30;99.90
39621;DHT22;25309;48.686;9.170;2023-04-15T05:08:59;4.20;99.90
39621;DHT22;25309;48.686;9.170;2023-04-15T05:11:27;4.20;99.90
39621;DHT22;25309;48.686;9.170;2023-04-15T05:13:54;4.10;99.90
39621;DHT22;25309;48.686;9.170;2023-04-15T05:16:21;4.10;99.90
39621;DHT22;25309;48.686;9.170;2023-04-15T05:18:49;4.10;99.90
39621;DHT22;25309;48.686;9.170;2023-04-15T05:21:16;4.10;99.90
39621;DHT22;25309;48.686;9.170;2023-04-15T05:23:43;4.10;99.90
39621;DHT22;25309;48.686;9.170;2023-04-15T05:26:10;4.20;99.90
39621;DHT22;25309;48.686;9.170;2023-04-15T05:28:37;4.20;99.90
39621;DHT22;25309;48.686;9.170;2023-04-15T05:31:04;4.20;99.90
39621;DHT22;25309;48.686;9.170;2023-04-15T05:33:31;4.20;99.90
39621;DHT22;25309;48.686;9.170;2023-04-15T05:36:00;4.30;99.90
39621;DHT22;25309;48.686;9.170;2023-04-15T05:38:26;4.20;99.90
39621;DHT22;25309;48.686;9.170;2023-04-15T05:40:53;4.20;99.90
39621;DHT22;25309;48.686;9.170;2023-04-15T05:43:20;4.20;99.90
39621;DHT22;25309;48.686;9.170;2023-04-15T05:45:47;4.20;99.90
39621;DHT22;25309;48.686;9.170;2023-04-15T05:48:14;4.30;99.90
39621;DHT22;25309;48.686;9.170;2023-04-15T05:50:41;4.30;99.90
39621;DHT22;25309;48.686;9.170;2023-04-15T05:53:09;4.40;99.90
39621;DHT22;25309;48.686;9.170;2023-04-15T05:55:37;4.40;99.90
39621;DHT22;25309;48.686;9.170;2023-04-15T05:58:04;4.50;99.90
39621;DHT22;25309;48.686;9.170;2023-04-15T06:00:31;4.50;99.90
39621;DHT22;25309;48.686;9.170;2023-04-15T06:02:58;4.60;99.90
39621;DHT22;25309;48.686;9.170;2023-04-15T06:05:25;4.80;99.90
39621;DHT22;25309;48.686;9.170;2023-04-15T06:07:53;4.90;99.90
39621;DHT22;25309;48.686;9.170;2023-04-15T06:10:21;5.00;99.90
39621;DHT22;25309;48.686;9.170;2023-04-15T06:12:48;5.10;99.90
39621;DHT22;25309;48.686;9.170;2023-04-15T06:15:15;5.20;99.90
39621;DHT22;25309;48.686;9.170;2023-04-15T06:17:42;5.40;99.90
39621;DHT22;25309;48.686;9.170;2023-04-15T06:20:10;5.50;99.90
39621;DHT22;25309;48.686;9.170;2023-04-15T06:22:37;5.70;99.90
39621;DHT22;25309;48.686;9.170;2023-04-15T06:25:06;5.80;99.90
39621;DHT22;25309;48.686;9.170;2023-04-15T06:27:35;5.90;99.90
39621;DHT22;25309;48.686;9.170;2023-04-15T06:30:03;6.00;99.90
39621;DHT22;25309;48.686;9.170;2023-04-15T06:32:29;6.20;99.90
39621;DHT22;25309;48.686;9.170;2023-04-15T06:34:57;6.30;99.90
39621;DHT22;25309;48.686;9.170;2023-04-15T06:37:24;6.40;99.90
39621;DHT22;25309;48.686;9.170;2023-04-15T06:39:51;6.60;99.90
39621;DHT22;25309;48.686;9.170;2023-04-15T06:42:18;6.70;99.90
39621;DHT22;25309;48.686;9.170;2023-04-15T06:44:47;6.90;99.90
39621;DHT22;25309;48.686;9.170;2023-04-15T06:47:14;7.00;99.90
39621;DHT22;25309;48.686;9.170;2023-04-15T06:49:41;7.10;99.90
39621;DHT22;25309;48.686;9.170;2023-04-15T06:52:09;7.30;99.90
39621;DHT22;25309;48.686;9.170;2023-04-15T06:54:36;7.40;99.90
39621;DHT22;25309;48.686;9.170;2023-04-15T06:57:04;7.50;99.90
39621;DHT22;25309;48.686;9.170;2023-04-15T06:59:32;7.70;99.90
39621;DHT22;25309;48.686;9.170;2023-04-15T07:02:00;7.70;99.90
39621;DHT22;25309;48.686;9.170;2023-04-15T07:04:27;7.90;99.90
39621;DHT22;25309;48.686;9.170;2023-04-15T07:06:54;8.00;99.90
39621;DHT22;25309;48.686;9.170;2023-04-15T07:09:22;8.10;99.90
39621;DHT22;25309;48.686;9.170;2023-04-15T07:11:49;8.10;99.90
39621;DHT22;25309;48.686;9.170;2023-04-15T07:14:17;8.20;99.90
39621;DHT22;25309;48.686;9.170;2023-04-15T07:16:44;8.30;99.90
39621;DHT22;25309;48.686;9.170;2023-04-15T07:19:12;8.30;99.90
39621;DHT22;25309;48.686;9.170;2023-04-15T07:21:39;8.40;99.90
39621;DHT22;25309;48.686;9.170;2023-04-15T07:24:07;8.50;99.90
39621;DHT22;25309;48.686;9.170;2023-04-15T07:26:36;8.50;99.90
39621;DHT22;25309;48.686;9.170;2023-04-15T07:29:03;8.50;99.90
39621;DHT22;25309;48.686;9.170;2023-04-15T07:31:30;8.60;99.90
39621;DHT22;25309;48.686;9.170;2023-04-15T07:33:57;8.70;99.90
39621;DHT22;25309;48.686;9.170;2023-04-15T07:36:25;8.80;99.90
39621;DHT22;25309;48.686;9.170;2023-04-15T07:38:52;9.00;99.90
39621;DHT22;25309;48.686;9.170;2023-04-15T07:41:19;9.20;99.90
39621;DHT22;25309;48.686;9.170;2023-04-15T07:43:46;9.40;99.90
39621;DHT22;25309;48.686;9.170;2023-04-15T07:46:14;9.60;99.90
39621;DHT22;25309;48.686;9.170;2023-04-15T07:48:41;9.80;99.90
39621;DHT22;25309;48.686;9.170;2023-04-15T07:51:08;10.00;99.90
39621;DHT22;25309;48.686;9.170;2023-04-15T07:53:37;10.10;99.90
39621;DHT22;25309;48.686;9.170;2023-04-15T07:56:05;10.20;99.90
39621;DHT22;25309;48.686;9.170;2023-04-15T07:58:32;10.30;99.90
39621;DHT22;25309;48.686;9.170;2023-04-15T08:00:59;10.40;99.90
39621;DHT22;25309;48.686;9.170;2023-04-15T08:03:26;10.40;99.90
39621;DHT22;25309;48.686;9.170;2023-04-15T08:05:53;10.40;99.90
39621;DHT22;25309;48.686;9.170;2023-04-15T08:08:20;10.40;99.90
39621;DHT22;25309;48.686;9.170;2023-04-15T08:10:49;10.40;99.90
39621;DHT22;25309;48.686;9.170;2023-04-15T08:13:18;10.40;99.90
39621;DHT22;25309;48.686;9.170;2023-04-15T08:15:52;10.40;99.90
39621;DHT22;25309;48.686;9.170;2023-04-15T08:18:19;10.40;99.90
39621;DHT22;25309;48.686;9.170;2023-04-15T08:20:46;10.50;99.90
39621;DHT22;25309;48.686;9.170;2023-04-15T08:23:13;10.60;99.90
39621;DHT22;25309;48.686;9.170;2023-04-15T08:25:40;10.70;99.90
39621;DHT22;25309;48.686;9.170;2023-04-15T08:28:09;10.90;99.90
39621;DHT22;25309;48.686;9.170;2023-04-15T08:30:36;11.10;99.90
39621;DHT22;25309;48.686;9.170;2023-04-15T08:33:03;11.30;99.90
39621;DHT22;25309;48.686;9.170;2023-04-15T08:35:30;11.50;99.90
39621;DHT22;25309;48.686;9.170;2023-04-15T08:37:57;11.60;99.90
39621;DHT22;25309;48.686;9.170;2023-04-15T08:40:26;11.80;99.90
39621;DHT22;25309;48.686;9.170;2023-04-15T08:42:57;12.00;99.80
39621;DHT22;25309;48.686;9.170;2023-04-15T08:45:26;12.20;99.60
39621;DHT22;25309;48.686;9.170;2023-04-15T08:47:55;12.40;99.00
39621;DHT22;25309;48.686;9.170;2023-04-15T08:50:24;12.70;98.80
39621;DHT22;25309;48.686;9.170;2023-04-15T08:52:53;13.00;98.50
39621;DHT22;25309;48.686;9.170;2023-04-15T08:55:21;13.30;97.70
39621;DHT22;25309;48.686;9.170;2023-04-15T08:57:48;13.60;97.10
39621;DHT22;25309;48.686;9.170;2023-04-15T09:00:17;13.90;96.40
39621;DHT22;25309;48.686;9.170;2023-04-15T09:02:46;14.20;95.90
39621;DHT22;25309;48.686;9.170;2023-04-15T09:05:13;14.50;95.30
39621;DHT22;25309;48.686;9.170;2023-04-15T09:07:40;15.10;95.20
39621;DHT22;25309;48.686;9.170;2023-04-15T09:10:08;15.50;94.10
39621;DHT22;25309;48.686;9.170;2023-04-15T09:12:35;16.50;93.20
39621;DHT22;25309;48.686;9.170;2023-04-15T09:15:03;17.50;91.90
39621;DHT22;25309;48.686;9.170;2023-04-15T09:17:32;18.70;88.50
39621;DHT22;25309;48.686;9.170;2023-04-15T09:20:12;19.60;84.30
39621;DHT22;25309;48.686;9.170;2023-04-15T09:22:40;19.60;80.80
39621;DHT22;25309;48.686;9.170;2023-04-15T09:25:26;19.40;77.70
39621;DHT22;25309;48.686;9.170;2023-04-15T09:27:55;19.90;74.10
39621;DHT22;25309;48.686;9.170;2023-04-15T09:30:22;21.00;73.20
39621;DHT22;25309;48.686;9.170;2023-04-15T09:32:50;21.80;72.80
39621;DHT22;25309;48.686;9.170;2023-04-15T09:35:19;22.20;72.70
39621;DHT22;25309;48.686;9.170;2023-04-15T09:37:47;22.00;72.30
39621;DHT22;25309;48.686;9.170;2023-04-15T09:40:14;21.70;70.30
39621;DHT22;25309;48.686;9.170;2023-04-15T09:42:56;21.40;70.40
39621;DHT22;25309;48.686;9.170;2023-04-15T09:45:23;21.30;69.80
39621;DHT22;25309;48.686;9.170;2023-04-15T09:47:56;21.30;70.30
39621;DHT22;25309;48.686;9.170;2023-04-15T09:50:28;21.50;70.50
39621;DHT22;25309;48.686;9.170;2023-04-15T09:52:55;21.80;69.80
39621;DHT22;25309;48.686;9.170;2023-04-15T09:55:22;22.00;66.40
39621;DHT22;25309;48.686;9.170;2023-04-15T09:57:49;22.10;65.80
39621;DHT22;25309;48.686;9.170;2023-04-15T10:00:16;22.20;63.40
39621;DHT22;25309;48.686;9.170;2023-04-15T10:02:43;22.10;63.70
39621;DHT22;25309;48.686;9.170;2023-04-15T10:05:14;21.80;63.40
39621;DHT22;25309;48.686;9.170;2023-04-15T10:07:43;21.30;62.50
39621;DHT22;25309;48.686;9.170;2023-04-15T10:10:11;20.80;64.60
39621;DHT22;25309;48.686;9.170;2023-04-15T10:12:40;20.50;65.10
39621;DHT22;25309;48.686;9.170;2023-04-15T10:15:13;20.10;65.40
39621;DHT22;25309;48.686;9.170;2023-04-15T10:17:43;19.60;66.80
39621;DHT22;25309;48.686;9.170;2023-04-15T10:20:11;19.30;68.30
39621;DHT22;25309;48.686;9.170;2023-04-15T10:22:42;19.00;68.10
39621;DHT22;25309;48.686;9.170;2023-04-15T10:25:11;18.80;67.90
39621;DHT22;25309;48.686;9.170;2023-04-15T10:27:39;18.50;69.60
39621;DHT22;25309;48.686;9.170;2023-04-15T10:30:08;18.30;70.50
39621;DHT22;25309;48.686;9.170;2023-04-15T10:32:35;18.20;71.20
39621;DHT22;25309;48.686;9.170;2023-04-15T10:35:04;18.10;71.10
39621;DHT22;25309;48.686;9.170;2023-04-15T10:37:34;18.10;70.50
39621;DHT22;25309;48.686;9.170;2023-04-15T10:40:23;17.90;70.20
39621;DHT22;25309;48.686;9.170;2023-04-15T10:42:51;17.70;69.40
39621;DHT22;25309;48.686;9.170;2023-04-15T10:45:18;17.70;69.80
39621;DHT22;25309;48.686;9.170;2023-04-15T10:47:50;17.70;71.00
39621;DHT22;25309;48.686;9.170;2023-04-15T10:50:18;17.90;69.50
39621;DHT22;25309;48.686;9.170;2023-04-15T10:52:45;18.10;70.00
39621;DHT22;25309;48.686;9.170;2023-04-15T10:55:14;18.30;69.80
39621;DHT22;25309;48.686;9.170;2023-04-15T10:57:42;18.60;69.20
39621;DHT22;25309;48.686;9.170;2023-04-15T11:00:11;18.80;68.90
39621;DHT22;25309;48.686;9.170;2023-04-15T11:02:41;19.10;68.30
39621;DHT22;25309;48.686;9.170;2023-04-15T11:05:09;19.10;67.60
39621;DHT22;25309;48.686;9.170;2023-04-15T11:07:39;19.20;67.10
39621;DHT22;25309;48.686;9.170;2023-04-15T11:13:20;19.80;66.30
39621;DHT22;25309;48.686;9.170;2023-04-15T11:15:48;19.90;66.30
39621;DHT22;25309;48.686;9.170;2023-04-15T11:18:17;20.00;67.50
39621;DHT22;25309;48.686;9.170;2023-04-15T11:20:46;20.00;67.20
39621;DHT22;25309;48.686;9.170;2023-04-15T11:23:13;19.90;67.10
39621;DHT22;25309;48.686;9.170;2023-04-15T11:25:42;19.70;67.60
39621;DHT22;25309;48.686;9.170;2023-04-15T11:28:10;19.40;67.30
39621;DHT22;25309;48.686;9.170;2023-04-15T11:30:40;19.10;68.50
39621;DHT22;25309;48.686;9.170;2023-04-15T11:33:09;18.60;69.50
39621;DHT22;25309;48.686;9.170;2023-04-15T11:35:38;18.40;70.10
39621;DHT22;25309;48.686;9.170;2023-04-15T11:38:08;18.20;71.60
39621;DHT22;25309;48.686;9.170;2023-04-15T11:40:37;18.30;72.30
39621;DHT22;25309;48.686;9.170;2023-04-15T11:43:05;18.50;71.70
39621;DHT22;25309;48.686;9.170;2023-04-15T11:45:33;18.70;71.70
39621;DHT22;25309;48.686;9.170;2023-04-15T11:48:06;18.90;71.40
39621;DHT22;25309;48.686;9.170;2023-04-15T11:50:33;19.20;70.10
39621;DHT22;25309;48.686;9.170;2023-04-15T11:53:02;19.50;69.20
39621;DHT22;25309;48.686;9.170;2023-04-15T11:55:41;19.70;68.70
39621;DHT22;25309;48.686;9.170;2023-04-15T11:58:10;19.70;67.90
39621;DHT22;25309;48.686;9.170;2023-04-15T12:00:39;19.60;67.60
39621;DHT22;25309;48.686;9.170;2023-04-15T12:03:17;19.30;68.40
39621;DHT22;25309;48.686;9.170;2023-04-15T12:06:07;19.10;68.90
39621;DHT22;25309;48.686;9.170;2023-04-15T12:08:51;18.80;70.30
39621;DHT22;25309;48.686;9.170;2023-04-15T12:11:27;18.60;70.40
39621;DHT22;25309;48.686;9.170;2023-04-15T12:13:56;18.40;69.80
39621;DHT22;25309;48.686;9.170;2023-04-15T12:16:24;18.40;69.40
39621;DHT22;25309;48.686;9.170;2023-04-15T12:18:53;18.50;69.50
39621;DHT22;25309;48.686;9.170;2023-04-15T12:21:22;18.80;69.70
39621;DHT22;25309;48.686;9.170;2023-04-15T12:23:51;19.00;69.60
39621;DHT22;25309;48.686;9.170;2023-04-15T12:26:25;19.00;69.60
39621;DHT22;25309;48.686;9.170;2023-04-15T12:28:53;19.10;70.60
39621;DHT22;25309;48.686;9.170;2023-04-15T12:31:21;19.30;71.30
39621;DHT22;25309;48.686;9.170;2023-04-15T12:33:49;19.40;68.90
39621;DHT22;25309;48.686;9.170;2023-04-15T12:36:18;19.40;68.00
39621;DHT22;25309;48.686;9.170;2023-04-15T12:38:44;19.40;67.90
39621;DHT22;25309;48.686;9.170;2023-04-15T12:41:12;19.10;67.00
39621;DHT22;25309;48.686;9.170;2023-04-15T12:43:39;18.90;67.40
39621;DHT22;25309;48.686;9.170;2023-04-15T12:46:06;18.80;68.10
39621;DHT22;25309;48.686;9.170;2023-04-15T12:48:34;18.80;67.60
39621;DHT22;25309;48.686;9.170;2023-04-15T12:51:01;18.70;69.80
39621;DHT22;25309;48.686;9.170;2023-04-15T12:53:32;18.30;73.50
39621;DHT22;25309;48.686;9.170;2023-04-15T12:55:59;18.10;74.60
39621;DHT22;25309;48.686;9.170;2023-04-15T12:58:26;17.90;75.40
39621;DHT22;25309;48.686;9.170;2023-04-15T13:00:53;17.60;77.00
39621;DHT22;25309;48.686;9.170;2023-04-15T13:03:20;17.50;77.40
39621;DHT22;25309;48.686;9.170;2023-04-15T13:05:47;17.40;77.30
39621;DHT22;25309;48.686;9.170;2023-04-15T13:08:14;17.20;78.30
39621;DHT22;25309;48.686;9.170;2023-04-15T13:10:42;17.00;79.20
39621;DHT22;25309;48.686;9.170;2023-04-15T13:13:09;16.90;79.10
39621;DHT22;25309;48.686;9.170;2023-04-15T13:15:36;16.80;79.20
39621;DHT22;25309;48.686;9.170;2023-04-15T13:18:05;16.70;78.80
39621;DHT22;25309;48.686;9.170;2023-04-15T13:20:32;16.60;78.80
39621;DHT22;25309;48.686;9.170;2023-04-15T13:22:59;16.40;78.80
39621;DHT22;25309;48.686;9.170;2023-04-15T13:25:26;16.10;78.40
39621;DHT22;25309;48.686;9.170;2023-04-15T13:27:54;15.70;79.40
39621;DHT22;25309;48.686;9.170;2023-04-15T13:30:23;15.60;80.40
39621;DHT22;25309;48.686;9.170;2023-04-15T13:32:50;15.60;80.60
39621;DHT22;25309;48.686;9.170;2023-04-15T13:35:17;15.50;80.70
39621;DHT22;25309;48.686;9.170;2023-04-15T13:37:44;15.60;79.00
39621;DHT22;25309;48.686;9.170;2023-04-15T13:40:11;15.50;77.60
39621;DHT22;25309;48.686;9.170;2023-04-15T13:42:38;15.50;78.10
39621;DHT22;25309;48.686;9.170;2023-04-15T13:45:08;15.40;78.00
39621;DHT22;25309;48.686;9.170;2023-04-15T13:47:35;15.30;77.80
39621;DHT22;25309;48.686;9.170;2023-04-15T13:50:03;15.30;78.00
39621;DHT22;25309;48.686;9.170;2023-04-15T13:52:29;15.30;78.50
39621;DHT22;25309;48.686;9.170;2023-04-15T13:54:56;15.30;78.30
39621;DHT22;25309;48.686;9.170;2023-04-15T13:57:43;15.30;77.80
39621;DHT22;25309;48.686;9.170;2023-04-15T14:00:13;15.10;77.70
39621;DHT22;25309;48.686;9.170;2023-04-15T14:02:40;15.00;78.30
39621;DHT22;25309;48.686;9.170;2023-04-15T14:05:08;14.90;78.70
39621;DHT22;25309;48.686;9.170;2023-04-15T14:07:35;14.90;78.90
39621;DHT22;25309;48.686;9.170;2023-04-15T14:10:03;14.90;78.50
39621;DHT22;25309;48.686;9.170;2023-04-15T14:12:30;15.00;78.40
39621;DHT22;25309;48.686;9.170;2023-04-15T14:14:57;15.00;78.80
39621;DHT22;25309;48.686;9.170;2023-04-15T14:17:26;14.90;76.90
39621;DHT22;25309;48.686;9.170;2023-04-15T14:19:53;14.90;75.80
39621;DHT22;25309;48.686;9.170;2023-04-15T14:22:20;14.80;75.90
39621;DHT22;25309;48.686;9.170;2023-04-15T14:24:47;14.70;75.30
39621;DHT22;25309;48.686;9.170;2023-04-15T14:27:14;14.70;75.30
39621;DHT22;25309;48.686;9.170;2023-04-15T14:29:42;14.70;74.70
39621;DHT22;25309;48.686;9.170;2023-04-15T14:32:09;14.50;70.90
39621;DHT22;25309;48.686;9.170;2023-04-15T14:34:39;14.30;69.20
39621;DHT22;25309;48.686;9.170;2023-04-15T14:37:06;14.00;70.00
39621;DHT22;25309;48.686;9.170;2023-04-15T14:39:33;13.80;69.40
39621;DHT22;25309;48.686;9.170;2023-04-15T14:42:00;13.70;69.50
39621;DHT22;25309;48.686;9.170;2023-04-15T14:44:27;13.60;68.70
39621;DHT22;25309;48.686;9.170;2023-04-15T14:46:54;13.50;70.10
39621;DHT22;25309;48.686;9.170;2023-04-15T14:49:21;13.40;71.00
39621;DHT22;25309;48.686;9.170;2023-04-15T14:51:50;13.30;71.50
39621;DHT22;25309;48.686;9.170;2023-04-15T14:54:17;13.30;72.10
39621;DHT22;25309;48.686;9.170;2023-04-15T14:56:46;13.30;72.90
39621;DHT22;25309;48.686;9.170;2023-04-15T14:59:13;13.20;73.70
39621;DHT22;25309;48.686;9.170;2023-04-15T15:01:40;13.20;74.60
39621;DHT22;25309;48.686;9.170;2023-04-15T15:04:09;13.20;75.50
39621;DHT22;25309;48.686;9.170;2023-04-15T15:06:36;13.20;75.50
39621;DHT22;25309;48.686;9.170;2023-04-15T15:09:04;13.00;75.90
39621;DHT22;25309;48.686;9.170;2023-04-15T15:11:31;13.00;76.70
39621;DHT22;25309;48.686;9.170;2023-04-15T15:13:58;12.90;77.50
39621;DHT22;25309;48.686;9.170;2023-04-15T15:16:25;12.90;78.10
39621;DHT22;25309;48.686;9.170;2023-04-15T15:18:53;12.90;78.80
39621;DHT22;25309;48.686;9.170;2023-04-15T15:21:20;12.80;79.50
39621;DHT22;25309;48.686;9.170;2023-04-15T15:23:47;12.70;80.20
39621;DHT22;25309;48.686;9.170;2023-04-15T15:26:15;12.60;81.70
39621;DHT22;25309;48.686;9.170;2023-04-15T15:28:43;12.50;83.20
39621;DHT22;25309;48.686;9.170;2023-04-15T15:31:11;12.40;83.40
39621;DHT22;25309;48.686;9.170;2023-04-15T15:33:38;12.30;83.50
39621;DHT22;25309;48.686;9.170;2023-04-15T15:36:05;12.20;83.80
39621;DHT22;25309;48.686;9.170;2023-04-15T15:38:32;12.10;84.30
39621;DHT22;25309;48.686;9.170;2023-04-15T15:40:59;12.10;84.80
39621;DHT22;25309;48.686;9.170;2023-04-15T15:43:27;12.00;85.00
39621;DHT22;25309;48.686;9.170;2023-04-15T15:45:54;12.00;85.70
39621;DHT22;25309;48.686;9.170;2023-04-15T15:48:22;12.00;86.40
39621;DHT22;25309;48.686;9.170;2023-04-15T15:50:48;12.00;86.30
39621;DHT22;25309;48.686;9.170;2023-04-15T15:53:15;12.00;86.60
39621;DHT22;25309;48.686;9.170;2023-04-15T15:55:46;12.00;87.20
39621;DHT22;25309;48.686;9.170;2023-04-15T15:58:14;12.00;87.90
39621;DHT22;25309;48.686;9.170;2023-04-15T16:00:42;12.00;88.90
39621;DHT22;25309;48.686;9.170;2023-04-15T16:03:09;12.00;89.30
39621;DHT22;25309;48.686;9.170;2023-04-15T16:05:37;11.90;90.10
39621;DHT22;25309;48.686;9.170;2023-04-15T16:08:04;11.80;90.10
39621;DHT22;25309;48.686;9.170;2023-04-15T16:10:32;11.70;90.10
39621;DHT22;25309;48.686;9.170;2023-04-15T16:12:59;11.70;90.70
39621;DHT22;25309;48.686;9.170;2023-04-15T16:15:26;11.70;91.00
39621;DHT22;25309;48.686;9.170;2023-04-15T16:17:54;11.70;90.30
39621;DHT22;25309;48.686;9.170;2023-04-15T16:20:21;11.80;90.00
39621;DHT22;25309;48.686;9.170;2023-04-15T16:22:48;11.70;89.40
39621;DHT22;25309;48.686;9.170;2023-04-15T16:25:15;11.70;89.10
39621;DHT22;25309;48.686;9.170;2023-04-15T16:27:42;11.70;89.60
39621;DHT22;25309;48.686;9.170;2023-04-15T16:30:24;11.70;90.00
39621;DHT22;25309;48.686;9.170;2023-04-15T16:32:51;11.80;90.40
39621;DHT22;25309;48.686;9.170;2023-04-15T16:35:20;11.80;90.40
39621;DHT22;25309;48.686;9.170;2023-04-15T16:37:47;11.80;90.70
39621;DHT22;25309;48.686;9.170;2023-04-15T16:40:14;11.70;91.50
39621;DHT22;25309;48.686;9.170;2023-04-15T16:42:41;11.70;92.20
39621;DHT22;25309;48.686;9.170;2023-04-15T16:45:09;11.70;92.70
39621;DHT22;25309;48.686;9.170;2023-04-15T16:47:36;11.70;93.50
39621;DHT22;25309;48.686;9.170;2023-04-15T16:50:04;11.60;93.90
39621;DHT22;25309;48.686;9.170;2023-04-15T16:52:34;11.60;94.50
39621;DHT22;25309;48.686;9.170;2023-04-15T16:55:01;11.50;94.80
39621;DHT22;25309;48.686;9.170;2023-04-15T16:57:28;11.50;95.30
39621;DHT22;25309;48.686;9.170;2023-04-15T17:00:15;11.50;95.70
39621;DHT22;25309;48.686;9.170;2023-04-15T17:02:42;11.50;96.40
39621;DHT22;25309;48.686;9.170;2023-04-15T17:05:09;11.50;96.60
39621;DHT22;25309;48.686;9.170;2023-04-15T17:07:37;11.40;97.40
39621;DHT22;25309;48.686;9.170;2023-04-15T17:10:05;11.30;97.70
39621;DHT22;25309;48.686;9.170;2023-04-15T17:12:32;11.30;98.00
39621;DHT22;25309;48.686;9.170;2023-04-15T17:14:59;11.20;98.60
39621;DHT22;25309;48.686;9.170;2023-04-15T17:17:26;11.20;99.20
39621;DHT22;25309;48.686;9.170;2023-04-15T17:19:53;11.10;99.70
39621;DHT22;25309;48.686;9.170;2023-04-15T17:22:20;11.00;99.90
39621;DHT22;25309;48.686;9.170;2023-04-15T17:24:48;11.10;99.90
39621;DHT22;25309;48.686;9.170;2023-04-15T17:27:15;11.00;99.90
39621;DHT22;25309;48.686;9.170;2023-04-15T17:29:42;11.00;99.90
39621;DHT22;25309;48.686;9.170;2023-04-15T17:32:09;10.90;99.90
39621;DHT22;25309;48.686;9.170;2023-04-15T17:34:36;10.80;99.90
39621;DHT22;25309;48.686;9.170;2023-04-15T17:37:17;10.70;99.90
39621;DHT22;25309;48.686;9.170;2023-04-15T17:39:44;10.60;99.90
39621;DHT22;25309;48.686;9.170;2023-04-15T17:42:12;10.60;99.90
39621;DHT22;25309;48.686;9.170;2023-04-15T17:44:39;10.40;99.90
39621;DHT22;25309;48.686;9.170;2023-04-15T17:47:06;10.30;99.90
39621;DHT22;25309;48.686;9.170;2023-04-15T17:49:33;10.30;99.90
39621;DHT22;25309;48.686;9.170;2023-04-15T17:52:03;10.20;99.90
39621;DHT22;25309;48.686;9.170;2023-04-15T17:54:30;10.10;99.90
39621;DHT22;25309;48.686;9.170;2023-04-15T17:56:57;10.10;99.90
39621;DHT22;25309;48.686;9.170;2023-04-15T17:59:26;10.00;99.90
39621;DHT22;25309;48.686;9.170;2023-04-15T18:01:53;10.00;99.90
39621;DHT22;25309;48.686;9.170;2023-04-15T18:04:20;10.00;99.90
39621;DHT22;25309;48.686;9.170;2023-04-15T18:06:51;10.00;99.90
39621;DHT22;25309;48.686;9.170;2023-04-15T18:09:18;10.00;99.90
39621;DHT22;25309;48.686;9.170;2023-04-15T18:11:45;9.90;99.90
39621;DHT22;25309;48.686;9.170;2023-04-15T18:14:14;9.90;99.90
39621;DHT22;25309;48.686;9.170;2023-04-15T18:16:58;9.80;99.90
39621;DHT22;25309;48.686;9.170;2023-04-15T18:19:25;9.80;99.90
39621;DHT22;25309;48.686;9.170;2023-04-15T18:21:52;9.80;99.90
39621;DHT22;25309;48.686;9.170;2023-04-15T18:24:19;9.80;99.90
39621;DHT22;25309;48.686;9.170;2023-04-15T18:26:47;9.70;99.90
39621;DHT22;25309;48.686;9.170;2023-04-15T18:29:15;9.60;99.90
39621;DHT22;25309;48.686;9.170;2023-04-15T18:31:42;9.60;99.90
39621;DHT22;25309;48.686;9.170;2023-04-15T18:34:11;9.50;99.90
39621;DHT22;25309;48.686;9.170;2023-04-15T18:36:38;9.40;99.90
39621;DHT22;25309;48.686;9.170;2023-04-15T18:39:05;9.40;99.90
39621;DHT22;25309;48.686;9.170;2023-04-15T18:41:32;9.30;99.90
39621;DHT22;25309;48.686;9.170;2023-04-15T18:43:59;9.20;99.90